Time;durP1;ratioP1;P1;durP2;ratioP2;P2;SDS_P1;SDS_P2;PMS_P1;PMS_P2;Temp;Humidity;BMP_temperature;BMP_pressure;BME280_temperature;BME280_humidity;BME280_pressure;Samples;Min_cycle;Max_cycle;Signal;HPM_P1;HPM_P2
2023/10/17 00:00:45;;;;;;;12.50;6.80;;;;;;;7.93;100.00;101752.84;5039087;28;20040;-77
2023/10/17 00:03:01;;;;;;;15.38;7.28;;;;;;;7.97;100.00;101743.53;5045458;28;20068;-78
2023/10/17 00:05:29;;;;;;;13.57;6.60;;;;;;;7.99;100.00;101740.72;5051859;28;20025;-77
2023/10/17 00:07:58;;;;;;;12.13;6.55;;;;;;;7.98;100.00;101728.06;5032864;28;20033;-77
2023/10/17 00:10:24;;;;;;;19.38;7.13;;;;;;;8.04;100.00;101730.47;5042739;28;20534;-78
2023/10/17 00:12:52;;;;;;;10.30;6.85;;;;;;;7.97;100.00;101729.00;5036071;28;20045;-78
2023/10/17 00:15:37;;;;;;;14.40;6.38;;;;;;;8.00;100.00;101732.47;5049112;28;20029;-78
2023/10/17 00:18:11;;;;;;;12.65;6.72;;;;;;;8.01;100.00;101728.75;5053800;28;20032;-78
2023/10/17 00:20:40;;;;;;;11.98;6.80;;;;;;;7.98;100.00;101730.78;5036407;28;20037;-78
2023/10/17 00:23:08;;;;;;;14.43;7.45;;;;;;;7.98;100.00;101725.31;5049789;28;20083;-78
2023/10/17 00:25:35;;;;;;;16.50;7.53;;;;;;;8.01;100.00;101720.56;5051474;28;20033;-78
2023/10/17 00:28:02;;;;;;;10.70;7.32;;;;;;;7.90;100.00;101721.19;5032770;28;20033;-78
2023/10/17 00:30:30;;;;;;;11.00;6.95;;;;;;;7.80;100.00;101719.88;5017149;28;20036;-78
2023/10/17 00:32:55;;;;;;;15.45;6.97;;;;;;;7.93;100.00;101728.28;5050499;28;20029;-78
2023/10/17 00:35:25;;;;;;;15.98;6.55;;;;;;;7.90;100.00;101725.72;5011174;28;20453;-78
2023/10/17 00:37:58;;;;;;;13.43;7.07;;;;;;;7.95;100.00;101715.44;5050617;28;20051;-78
2023/10/17 00:43:29;;;;;;;11.85;6.22;;;;;;;7.93;100.00;101713.78;4981998;28;20046;-78
2023/10/17 00:45:56;;;;;;;13.98;6.30;;;;;;;7.97;100.00;101721.72;4975059;28;20041;-78
2023/10/17 00:48:23;;;;;;;12.88;6.90;;;;;;;7.97;100.00;101720.81;4975416;28;20097;-78
2023/10/17 00:50:52;;;;;;;14.57;7.00;;;;;;;7.97;100.00;101712.66;4970208;28;20059;-78
2023/10/17 00:53:18;;;;;;;10.00;6.13;;;;;;;8.02;100.00;101705.13;5052098;28;20485;-78
2023/10/17 00:55:50;;;;;;;15.27;7.05;;;;;;;7.99;100.00;101699.84;5050982;28;20039;-78
2023/10/17 00:58:18;;;;;;;12.88;7.00;;;;;;;7.91;100.00;101687.47;5050302;28;20052;-78
2023/10/17 01:00:49;;;;;;;13.20;6.68;;;;;;;7.93;100.00;101701.03;5051271;28;20051;-78
2023/10/17 01:03:16;;;;;;;21.23;7.35;;;;;;;7.97;100.00;101707.19;5049307;28;20033;-78
2023/10/17 01:05:48;;;;;;;12.90;7.10;;;;;;;7.90;100.00;101707.53;5043781;28;20041;-79
2023/10/17 01:08:15;;;;;;;11.98;6.97;;;;;;;7.85;100.00;101704.16;5049523;28;20059;-78
2023/10/17 01:10:41;;;;;;;16.83;6.65;;;;;;;7.86;100.00;101705.94;5031576;28;20471;-78
2023/10/17 01:13:06;;;;;;;17.85;7.40;;;;;;;7.88;100.00;101697.69;5028453;28;20033;-78
2023/10/17 01:15:33;;;;;;;17.08;7.45;;;;;;;7.88;100.00;101697.69;5048281;28;20033;-79
2023/10/17 01:18:04;;;;;;;14.98;7.53;;;;;;;7.90;100.00;101699.38;5051326;28;20040;-79
2023/10/17 01:20:32;;;;;;;20.83;8.43;;;;;;;7.95;100.00;101701.81;5035440;28;20156;-78
2023/10/17 01:23:01;;;;;;;12.30;7.00;;;;;;;7.89;100.00;101710.34;5050705;28;20032;-78
2023/10/17 01:25:41;;;;;;;16.58;7.82;;;;;;;7.90;100.00;101712.09;5035303;28;20025;-78
2023/10/17 01:28:07;;;;;;;18.75;7.63;;;;;;;7.86;100.00;101705.94;5044379;28;20030;-78
2023/10/17 01:30:34;;;;;;;19.73;6.93;;;;;;;7.88;100.00;101701.28;5052159;28;20135;-78
2023/10/17 01:33:00;;;;;;;13.02;7.68;;;;;;;7.82;100.00;101701.63;5046705;28;20067;-79
2023/10/17 01:35:25;;;;;;;12.57;8.13;;;;;;;7.79;100.00;101701.78;5049794;28;20032;-78
2023/10/17 01:37:52;;;;;;;20.25;8.65;;;;;;;7.82;100.00;101707.09;5052841;28;20037;-78
2023/10/17 01:40:27;;;;;;;13.85;8.43;;;;;;;7.88;100.00;101698.53;5050983;28;20055;-78
2023/10/17 01:42:53;;;;;;;13.07;7.45;;;;;;;7.88;100.00;101704.00;5045754;28;20079;-78
2023/10/17 01:45:25;;;;;;;17.23;8.63;;;;;;;7.88;100.00;101698.53;5044154;28;20032;-78
2023/10/17 01:47:51;;;;;;;13.05;8.07;;;;;;;7.84;100.00;101696.09;5050393;28;20091;-78
2023/10/17 01:50:19;;;;;;;16.25;8.35;;;;;;;7.79;100.00;101703.63;5049736;28;20056;-79
2023/10/17 01:52:46;;;;;;;14.25;7.57;;;;;;;7.93;100.00;101691.97;5051484;28;20029;-79
2023/10/17 01:55:15;;;;;;;19.90;8.45;;;;;;;7.85;100.00;101682.34;5044606;28;20036;-78
2023/10/17 01:57:46;;;;;;;18.50;8.77;;;;;;;7.79;100.00;101685.44;5034563;28;20534;-78
2023/10/17 02:00:46;;;;;;;15.73;8.85;;;;;;;7.75;100.00;101681.09;5031907;28;20132;-78
2023/10/17 02:03:08;;;;;;;13.70;8.83;;;;;;;7.78;100.00;101672.75;5034745;28;20036;-78
2023/10/17 02:05:36;;;;;;;17.00;9.02;;;;;;;7.62;100.00;101669.09;5044098;28;20124;-78
2023/10/17 02:08:02;;;;;;;14.65;8.65;;;;;;;7.67;100.00;101667.00;5043381;28;20033;-78
2023/10/17 02:10:31;;;;;;;16.02;8.85;;;;;;;7.61;100.00;101665.50;5051823;28;20052;-78
2023/10/17 02:12:56;;;;;;;21.45;9.32;;;;;;;7.63;100.00;101669.00;5046687;28;20555;-78
2023/10/17 02:15:25;;;;;;;15.15;8.45;;;;;;;7.68;100.00;101663.31;5044213;28;20033;-78
2023/10/17 02:17:51;;;;;;;26.60;9.27;;;;;;;7.63;100.00;101647.22;5030625;28;20068;-78
2023/10/17 02:20:30;;;;;;;20.92;10.38;;;;;;;7.67;100.00;101646.09;5045357;28;20036;-78
2023/10/17 02:22:57;;;;;;;17.05;10.20;;;;;;;7.67;100.00;101642.47;5049611;28;20025;-78
2023/10/17 02:25:34;;;;;;;23.98;11.15;;;;;;;7.69;100.00;101643.25;5049251;28;20037;-78
2023/10/17 02:28:00;;;;;;;20.02;9.48;;;;;;;7.71;100.00;101641.34;5014181;28;20041;-78
2023/10/17 02:30:26;;;;;;;19.95;10.07;;;;;;;7.67;100.00;101645.19;5046024;28;20075;-78
2023/10/17 02:32:54;;;;;;;18.88;11.05;;;;;;;7.70;100.00;101651.34;5033300;28;20525;-78
2023/10/17 02:35:28;;;;;;;20.05;10.73;;;;;;;7.60;100.00;101652.81;5032877;28;20037;-78
2023/10/17 02:37:58;;;;;;;24.33;10.50;;;;;;;7.62;100.00;101650.03;5031136;28;20040;-78
2023/10/17 02:40:24;;;;;;;26.73;12.13;;;;;;;7.66;100.00;101659.81;5017738;28;20110;-78
2023/10/17 02:42:51;;;;;;;22.25;11.50;;;;;;;7.68;100.00;101647.84;5049312;28;20471;-78
2023/10/17 02:45:24;;;;;;;24.33;12.15;;;;;;;7.72;100.00;101640.38;5046562;28;20037;-78
2023/10/17 02:47:54;;;;;;;21.48;11.48;;;;;;;7.67;100.00;101643.38;5039414;28;20060;-78
2023/10/17 02:50:42;;;;;;;31.40;12.45;;;;;;;7.63;100.00;101636.31;5045281;28;20029;-78
2023/10/17 02:53:12;;;;;;;22.85;12.52;;;;;;;7.66;100.00;101652.50;5050290;28;20194;-78
2023/10/17 02:55:38;;;;;;;28.00;13.77;;;;;;;7.73;100.00;101661.22;5047087;28;20049;-78
2023/10/17 02:58:05;;;;;;;33.38;13.82;;;;;;;7.73;100.00;101653.03;5048203;28;20049;-78
2023/10/17 03:00:34;;;;;;;38.47;15.23;;;;;;;7.70;100.00;101651.34;5049090;28;20029;-78
2023/10/17 03:03:00;;;;;;;35.88;15.70;;;;;;;7.66;100.00;101646.19;5062792;28;20036;-78
2023/10/17 03:05:27;;;;;;;29.23;16.23;;;;;;;7.67;100.00;101642.47;5046238;28;20036;-78
2023/10/17 03:07:53;;;;;;;34.42;16.70;;;;;;;7.70;100.00;101653.22;5046771;28;20044;-78
2023/10/17 03:10:39;;;;;;;35.17;16.30;;;;;;;7.78;100.00;101653.66;5048182;28;20041;-78
2023/10/17 03:13:32;;;;;;;32.38;15.82;;;;;;;7.73;100.00;101647.59;5037660;28;20033;-78
2023/10/17 03:16:01;;;;;;;34.00;17.63;;;;;;;7.71;100.00;101653.13;5050606;28;20029;-78
2023/10/17 03:18:26;;;;;;;36.40;17.42;;;;;;;7.67;100.00;101640.66;5041435;28;20025;-78
2023/10/17 03:20:52;;;;;;;29.20;16.73;;;;;;;7.63;100.00;101641.75;5031250;28;20090;-78
2023/10/17 03:23:28;;;;;;;33.53;16.98;;;;;;;7.70;100.00;101637.72;5041162;28;20033;-78
2023/10/17 03:26:00;;;;;;;37.13;17.85;;;;;;;7.68;100.00;101636.06;5043040;28;20060;-78
2023/10/17 03:28:27;;;;;;;33.83;17.40;;;;;;;7.63;100.00;101641.75;5047926;28;20411;-78
2023/10/17 03:30:53;;;;;;;37.10;16.92;;;;;;;7.64;100.00;101645.34;5049040;28;20033;-78
2023/10/17 03:33:27;;;;;;;36.35;18.25;;;;;;;7.57;100.00;101649.38;5045704;28;20513;-78
2023/10/17 03:38:31;;;;;;;35.53;18.15;;;;;;;7.63;100.00;101643.63;5046759;28;20059;-78
2023/10/17 03:41:17;;;;;;;33.45;18.50;;;;;;;7.59;100.00;101644.72;5047401;28;20029;-78
2023/10/17 03:43:52;;;;;;;39.42;18.27;;;;;;;7.63;100.00;101644.50;5048404;28;20041;-78
2023/10/17 03:46:18;;;;;;;34.33;18.08;;;;;;;7.65;100.00;101648.00;5049091;28;20107;-78
2023/10/17 03:48:57;;;;;;;32.60;16.75;;;;;;;7.73;100.00;101655.78;5049211;28;20102;-78
2023/10/17 03:51:24;;;;;;;36.70;19.17;;;;;;;7.71;100.00;101653.13;5050061;28;20036;-78
2023/10/17 03:53:53;;;;;;;34.13;16.83;;;;;;;7.69;100.00;101662.34;5032296;28;20088;-78
2023/10/17 03:56:35;;;;;;;38.83;16.92;;;;;;;7.64;100.00;101651.72;5032330;28;20051;-78
2023/10/17 04:01:39;;;;;;;34.08;16.52;;;;;;;7.65;100.00;101653.44;5042596;28;20033;-78
2023/10/17 04:04:05;;;;;;;36.00;16.30;;;;;;;7.65;100.00;101656.19;5040598;28;20468;-78
2023/10/17 04:06:51;;;;;;;31.35;16.25;;;;;;;7.65;100.00;101653.44;5047279;28;20522;-78
2023/10/17 04:11:53;;;;;;;27.10;15.60;;;;;;;7.72;100.00;101654.91;5046853;28;20029;-78
2023/10/17 04:14:20;;;;;;;32.10;16.20;;;;;;;7.61;100.00;101651.88;5048035;28;20079;-78
2023/10/17 04:16:48;;;;;;;34.85;15.90;;;;;;;7.64;100.00;101656.25;5033278;28;20155;-78
2023/10/17 04:19:17;;;;;;;32.97;16.25;;;;;;;7.58;100.00;101660.22;5032056;28;20043;-78
2023/10/17 04:22:01;;;;;;;33.00;15.63;;;;;;;7.68;100.00;101653.28;5042996;28;20026;-78
2023/10/17 04:24:35;;;;;;;30.60;14.88;;;;;;;7.65;100.00;101660.75;5043842;28;20041;-78
2023/10/17 04:29:42;;;;;;;37.85;16.65;;;;;;;7.64;100.00;101648.09;5047424;28;20120;-79
2023/10/17 04:32:13;;;;;;;32.13;15.30;;;;;;;7.65;100.00;101644.41;5041174;28;20033;-78
2023/10/17 04:34:46;;;;;;;33.92;15.68;;;;;;;7.60;100.00;101643.78;5033554;28;20426;-78
2023/10/17 04:37:24;;;;;;;36.05;16.00;;;;;;;7.61;100.00;101650.97;5045276;28;20021;-78
2023/10/17 04:39:55;;;;;;;27.05;14.23;;;;;;;7.67;100.00;101658.81;5045722;28;20094;-78
2023/10/17 04:45:19;;;;;;;27.63;15.45;;;;;;;7.60;100.00;101655.56;5014469;28;20033;-78
2023/10/17 04:47:46;;;;;;;29.05;15.18;;;;;;;7.61;100.00;101656.41;5044708;28;20471;-79
2023/10/17 04:50:11;;;;;;;28.65;15.55;;;;;;;7.55;100.00;101644.88;5045908;28;20033;-80
2023/10/17 04:52:40;;;;;;;28.65;15.10;;;;;;;7.58;100.00;101654.75;5048054;28;20162;-77
2023/10/17 04:55:22;;;;;;;28.13;15.82;;;;;;;7.50;100.00;101652.44;5047786;28;20043;-78
2023/10/17 05:09:00;;;;;;;27.65;15.40;;;;;;;7.53;100.00;101660.44;5049345;28;20040;-78
2023/10/17 06:17:20;;;;;;;33.05;18.17;;;;;;;7.47;100.00;101633.53;5041852;28;20052;-77
2023/10/17 06:19:46;;;;;;;30.70;17.88;;;;;;;7.51;100.00;101645.13;5048589;28;20505;-77
2023/10/17 06:33:02;;;;;;;36.50;17.40;;;;;;;7.58;100.00;101646.59;5045218;28;20124;-80
2023/10/17 06:35:31;;;;;;;35.35;19.25;;;;;;;7.57;100.00;101643.94;5048041;28;20075;-78
2023/10/17 06:38:09;;;;;;;33.88;17.35;;;;;;;7.64;100.00;101645.34;5046202;28;20376;-80
2023/10/17 06:40:44;;;;;;;31.48;18.27;;;;;;;7.59;100.00;101658.34;5049073;28;20033;-79
2023/10/17 06:43:46;;;;;;;30.17;16.88;;;;;;;7.63;100.00;101654.53;5034189;28;20071;-78
2023/10/17 06:46:11;;;;;;;32.55;16.73;;;;;;;7.68;100.00;101657.88;5046279;28;20060;-80
2023/10/17 06:48:36;;;;;;;33.97;16.63;;;;;;;7.71;100.00;101652.25;5032240;28;20482;-80
2023/10/17 06:53:34;;;;;;;28.55;16.30;;;;;;;7.79;100.00;101655.44;5050233;28;20139;-79
2023/10/17 06:56:09;;;;;;;30.98;15.60;;;;;;;7.72;100.00;101652.19;5044206;28;20033;-80
2023/10/17 06:58:36;;;;;;;34.35;15.00;;;;;;;7.83;100.00;101651.56;5047245;28;20048;-80
2023/10/17 07:01:04;;;;;;;29.75;16.00;;;;;;;7.89;100.00;101656.69;5014083;28;20406;-80
2023/10/17 07:03:34;;;;;;;24.73;14.82;;;;;;;7.86;100.00;101658.72;5029936;28;20041;-79
2023/10/17 07:06:20;;;;;;;21.58;14.48;;;;;;;7.94;100.00;101664.63;5015557;28;20049;-79
2023/10/17 07:08:46;;;;;;;23.50;14.55;;;;;;;7.88;100.00;101665.81;5049343;28;20075;-88
2023/10/17 07:11:26;;;;;;;24.73;14.55;;;;;;;7.88;100.00;101660.38;5015727;28;20056;-87
2023/10/17 07:22:05;;;;;;;27.38;14.35;;;;;;;8.01;100.00;101652.41;5053250;28;20045;-91
2023/10/17 07:24:53;;;;;;;30.83;13.35;;;;;;;8.06;100.00;101646.69;5043500;28;20026;-91
2023/10/17 07:27:27;;;;;;;23.27;13.15;;;;;;;8.13;100.00;101644.50;5056002;28;20319;-90
2023/10/17 07:30:10;;;;;;;27.05;14.32;;;;;;;8.10;100.00;101643.72;5064967;28;20116;-91
2023/10/17 07:32:47;;;;;;;20.55;13.02;;;;;;;8.16;100.00;101638.88;5071425;28;20403;-91
2023/10/17 07:35:16;;;;;;;28.92;13.43;;;;;;;8.24;100.00;101651.09;5037883;28;20383;-91
2023/10/17 07:37:53;;;;;;;25.27;13.18;;;;;;;8.34;100.00;101656.06;5053817;28;20523;-90
2023/10/17 07:43:09;;;;;;;21.67;11.88;;;;;;;8.33;100.00;101652.47;5051747;28;20033;-92
2023/10/17 07:45:41;;;;;;;21.75;13.05;;;;;;;8.49;100.00;101648.88;5051009;28;20075;-91
2023/10/17 07:48:25;;;;;;;30.30;13.05;;;;;;;8.43;100.00;101640.06;5055330;28;20029;-92
2023/10/17 07:50:52;;;;;;;27.83;13.43;;;;;;;8.52;100.00;101649.56;5053653;28;20033;-93
2023/10/17 07:53:21;;;;;;;27.90;13.00;;;;;;;8.74;100.00;101648.31;5036734;28;20044;-92
2023/10/17 07:56:04;;;;;;;23.45;11.63;;;;;;;8.80;100.00;101651.56;5044934;28;20037;-89
2023/10/17 07:58:38;;;;;;;21.17;11.93;;;;;;;8.92;100.00;101644.50;5051479;28;20132;-90
2023/10/17 08:01:07;;;;;;;26.98;11.63;;;;;;;9.08;100.00;101636.25;5034811;28;20490;-89
2023/10/17 08:03:34;;;;;;;23.38;11.32;;;;;;;9.02;100.00;101642.13;5040772;28;20025;-89
2023/10/17 08:06:07;;;;;;;16.17;11.32;;;;;;;8.91;100.00;101642.75;5020560;28;20032;-89
2023/10/17 08:08:35;;;;;;;17.95;10.77;;;;;;;8.72;100.00;101642.94;5047233;28;20041;-89
2023/10/17 08:11:05;;;;;;;23.88;10.98;;;;;;;8.72;100.00;101648.41;5051754;28;20041;-89
2023/10/17 08:13:32;;;;;;;17.63;10.43;;;;;;;8.58;100.00;101646.50;5049865;28;20029;-89
2023/10/17 08:16:24;;;;;;;17.40;10.40;;;;;;;8.59;100.00;101648.25;5058907;28;20040;-89
2023/10/17 08:21:40;;;;;;;18.75;10.00;;;;;;;9.16;100.00;101654.94;5052262;28;20044;-89
2023/10/17 08:24:07;;;;;;;15.80;9.40;;;;;;;9.61;100.00;101644.88;5027004;28;20037;-90
2023/10/17 08:26:40;;;;;;;17.40;8.90;;;;;;;10.06;100.00;101653.00;5054937;28;20029;-89
2023/10/17 08:29:08;;;;;;;14.45;9.25;;;;;;;10.37;100.00;101640.97;5058306;28;20036;-88
2023/10/17 08:31:44;;;;;;;14.05;9.77;;;;;;;10.45;100.00;101644.09;5052581;28;20052;-90
2023/10/17 08:34:15;;;;;;;14.75;8.25;;;;;;;10.70;100.00;101644.31;5042620;28;20032;-88
2023/10/17 08:39:26;;;;;;;12.43;8.38;;;;;;;11.16;100.00;101647.53;5058118;28;20135;-89
2023/10/17 08:42:05;;;;;;;13.80;8.00;;;;;;;11.45;100.00;101657.50;5049006;28;20228;-89
2023/10/17 08:44:35;;;;;;;14.98;7.47;;;;;;;11.25;100.00;101647.88;5071356;28;20032;-89
2023/10/17 08:47:01;;;;;;;13.85;7.43;;;;;;;11.58;100.00;101653.75;5034302;28;20044;-89
2023/10/17 08:49:28;;;;;;;16.50;7.82;;;;;;;11.74;100.00;101648.06;5053515;28;20417;-89
2023/10/17 08:52:23;;;;;;;12.00;6.85;;;;;;;12.04;100.00;101641.38;5066865;28;20052;-89
2023/10/17 08:54:48;;;;;;;16.70;7.55;;;;;;;12.14;100.00;101645.22;5049282;28;20049;-89
2023/10/17 08:57:14;;;;;;;15.50;7.05;;;;;;;12.57;100.00;101643.88;5053590;28;20065;-88
2023/10/17 09:04:49;;;;;;;12.70;7.33;;;;;;;12.73;100.00;101651.88;5058595;28;20028;-90
2023/10/17 09:07:23;;;;;;;15.93;7.22;;;;;;;12.63;100.00;101650.81;5066620;28;20025;-88
2023/10/17 09:10:02;;;;;;;14.73;7.20;;;;;;;12.80;100.00;101647.66;5070370;28;20078;-90
2023/10/17 09:12:28;;;;;;;14.43;6.70;;;;;;;12.99;100.00;101643.50;5049106;28;20029;-89
2023/10/17 09:14:56;;;;;;;11.95;6.55;;;;;;;13.04;100.00;101633.91;5053542;28;20032;-89
2023/10/17 09:19:53;;;;;;;11.48;6.00;;;;;;;13.08;100.00;101633.66;5057435;28;20041;-90
2023/10/17 09:22:26;;;;;;;13.20;6.20;;;;;;;13.08;100.00;101641.91;5045727;28;20025;-89
2023/10/17 09:24:51;;;;;;;13.47;6.50;;;;;;;12.94;100.00;101635.63;5057441;28;20025;-89
2023/10/17 09:27:18;;;;;;;12.00;6.60;;;;;;;13.22;100.00;101639.84;5053743;28;20047;-89
2023/10/17 09:29:51;;;;;;;10.75;5.80;;;;;;;13.14;100.00;101641.47;5050873;28;20031;-79
2023/10/17 09:32:40;;;;;;;10.15;5.80;;;;;;;13.32;100.00;101645.53;5044633;28;20056;-79
2023/10/17 09:35:10;;;;;;;10.32;5.45;;;;;;;13.04;100.00;101650.41;5047628;28;20021;-79
2023/10/17 09:37:56;;;;;;;12.52;5.85;;;;;;;13.63;100.00;101642.25;5029678;28;20036;-79
2023/10/17 09:40:33;;;;;;;14.82;6.07;;;;;;;13.71;100.00;101646.16;5043033;28;20039;-79
2023/10/17 09:43:00;;;;;;;10.25;5.35;;;;;;;14.17;100.00;101638.81;5061653;28;20079;-79
2023/10/17 09:45:35;;;;;;;8.88;5.35;;;;;;;13.63;100.00;101636.75;5048845;28;20029;-79
2023/10/17 09:48:05;;;;;;;15.95;6.10;;;;;;;13.66;100.00;101648.41;5047926;28;20043;-79
2023/10/17 09:50:34;;;;;;;14.73;5.88;;;;;;;13.81;100.00;101645.38;5051742;28;20100;-79
2023/10/17 09:53:12;;;;;;;13.77;5.40;;;;;;;13.77;100.00;101637.41;5051296;28;20721;-79
2023/10/17 09:55:44;;;;;;;10.57;5.60;;;;;;;13.18;100.00;101634.69;5064689;28;20075;-79
2023/10/17 09:58:10;;;;;;;13.20;5.60;;;;;;;13.21;100.00;101639.97;5051305;28;21771;-79
2023/10/17 10:00:46;;;;;;;13.40;5.78;;;;;;;13.08;100.00;101637.28;5051330;28;20024;-79
2023/10/17 10:03:13;;;;;;;10.52;5.47;;;;;;;13.34;100.00;101651.78;5049814;28;20375;-79
2023/10/17 10:05:40;;;;;;;12.35;5.20;;;;;;;13.15;100.00;101643.19;5041735;28;20031;-79
2023/10/17 10:08:31;;;;;;;15.65;6.05;;;;;;;13.31;100.00;101638.25;5051070;28;20028;-80
2023/10/17 10:10:57;;;;;;;9.35;4.80;;;;;;;13.48;100.00;101634.22;5046215;28;20028;-79
2023/10/17 10:13:24;;;;;;;14.57;5.10;;;;;;;13.83;100.00;101640.66;5032874;28;20021;-79
2023/10/17 10:16:03;;;;;;;16.33;5.78;;;;;;;13.68;100.00;101635.38;5037156;28;20041;-77
2023/10/17 10:18:35;;;;;;;13.07;5.80;;;;;;;13.85;100.00;101636.78;5050644;28;20045;-77
2023/10/17 10:21:07;;;;;;;10.20;5.05;;;;;;;14.08;100.00;101632.16;5050450;28;20083;-79
2023/10/17 10:23:39;;;;;;;11.50;5.03;;;;;;;14.13;100.00;101623.50;5050808;28;20063;-79
2023/10/17 10:26:19;;;;;;;11.70;4.97;;;;;;;14.13;100.00;101634.53;5050531;28;20032;-77
2023/10/17 10:28:52;;;;;;;10.82;3.97;;;;;;;14.07;100.00;101624.00;5049031;28;20098;-78
2023/10/17 10:31:21;;;;;;;10.27;4.50;;;;;;;14.31;100.00;101629.38;5044788;28;20033;-78
2023/10/17 10:33:51;;;;;;;15.27;5.47;;;;;;;14.52;100.00;101621.22;5051364;28;20033;-78
2023/10/17 10:36:16;;;;;;;10.55;5.25;;;;;;;14.25;100.00;101629.88;5048774;28;20036;-77
2023/10/17 10:38:46;;;;;;;18.60;4.90;;;;;;;14.30;100.00;101623.00;5030955;28;20018;-87
2023/10/17 10:41:13;;;;;;;13.65;5.57;;;;;;;14.29;100.00;101620.38;5046008;28;20071;-88
2023/10/17 10:43:43;;;;;;;10.27;4.97;;;;;;;13.94;100.00;101616.75;5064536;28;20117;-87
2023/10/17 10:46:08;;;;;;;9.82;4.95;;;;;;;14.20;100.00;101596.34;5049774;28;20044;-88
2023/10/17 10:48:38;;;;;;;11.13;4.80;;;;;;;14.18;100.00;101603.88;5064714;28;20095;-88
2023/10/17 10:51:04;;;;;;;10.77;4.70;;;;;;;14.37;100.00;101595.81;5048124;28;20443;-88
2023/10/17 10:53:33;;;;;;;13.88;4.93;;;;;;;14.34;100.00;101599.69;5052139;28;20466;-88
2023/10/17 10:56:04;;;;;;;12.40;4.78;;;;;;;14.37;100.00;101600.47;5050095;28;20526;-88
2023/10/17 10:58:42;;;;;;;11.70;4.22;;;;;;;14.35;100.00;101592.34;5051454;28;20463;-88
2023/10/17 11:01:07;;;;;;;8.07;4.07;;;;;;;14.30;100.00;101589.94;5045321;28;20045;-88
2023/10/17 11:03:39;;;;;;;8.30;4.82;;;;;;;14.16;100.00;101579.19;5029873;28;20029;-88
2023/10/17 11:06:07;;;;;;;8.20;4.15;;;;;;;14.58;100.00;101581.25;5048899;28;20048;-89
2023/10/17 11:08:39;;;;;;;13.80;4.20;;;;;;;14.49;100.00;101578.28;5048666;28;20029;-88
2023/10/17 11:11:05;;;;;;;9.10;4.30;;;;;;;14.49;100.00;101571.88;5051804;28;20051;-88
2023/10/17 11:13:37;;;;;;;9.75;4.47;;;;;;;14.05;100.00;101580.09;5051860;28;20474;-87
2023/10/17 11:16:06;;;;;;;8.75;4.63;;;;;;;14.29;100.00;101570.78;5050878;28;20025;-88
2023/10/17 11:18:38;;;;;;;10.32;4.35;;;;;;;14.21;100.00;101563.16;5039763;28;20040;-88
2023/10/17 11:21:05;;;;;;;11.45;4.25;;;;;;;14.36;100.00;101562.88;5051106;28;20035;-88
2023/10/17 11:23:33;;;;;;;5.82;3.78;;;;;;;14.22;100.00;101564.94;5033687;28;20116;-88
2023/10/17 11:26:00;;;;;;;5.47;3.67;;;;;;;14.01;100.00;101564.81;5053571;28;20051;-88
2023/10/17 11:28:27;;;;;;;6.13;3.78;;;;;;;13.70;99.76;101558.19;5031088;28;20045;-89
2023/10/17 11:30:53;;;;;;;10.45;4.07;;;;;;;13.99;100.00;101558.56;5049014;28;20108;-88
2023/10/17 11:33:29;;;;;;;7.63;4.22;;;;;;;13.72;100.00;101551.56;5053310;28;20498;-88
2023/10/17 11:36:03;;;;;;;7.20;3.95;;;;;;;13.70;100.00;101552.69;5038182;28;20132;-88
2023/10/17 11:38:35;;;;;;;7.93;3.10;;;;;;;13.69;100.00;101554.59;5042680;28;20142;-88
2023/10/17 11:41:04;;;;;;;6.47;3.30;;;;;;;13.52;100.00;101544.06;5042450;28;20033;-88
2023/10/17 11:43:34;;;;;;;8.70;3.20;;;;;;;13.58;100.00;101546.31;5046445;28;20432;-88
2023/10/17 11:46:01;;;;;;;7.43;2.97;;;;;;;13.34;98.28;101547.28;5051502;28;20017;-88
2023/10/17 11:48:33;;;;;;;4.82;3.22;;;;;;;13.20;98.42;101539.25;5044928;28;20475;-78
2023/10/17 11:51:19;;;;;;;7.95;3.55;;;;;;;13.38;100.00;101532.28;5045879;28;20045;-79
2023/10/17 11:54:03;;;;;;;7.53;3.30;;;;;;;13.59;100.00;101523.28;5051069;28;20071;-79
2023/10/17 11:56:30;;;;;;;10.15;3.45;;;;;;;13.67;100.00;101514.41;5050202;28;20536;-79
2023/10/17 11:58:56;;;;;;;8.30;3.50;;;;;;;13.77;100.00;101512.66;5044724;28;20052;-78
2023/10/17 12:01:22;;;;;;;7.68;3.25;;;;;;;13.78;100.00;101509.78;5048882;28;20032;-79
2023/10/17 12:03:51;;;;;;;8.43;3.28;;;;;;;13.82;100.00;101507.63;5050479;28;20418;-80
2023/10/17 12:06:16;;;;;;;6.15;3.00;;;;;;;13.61;99.90;101526.81;5049866;28;20032;-79
2023/10/17 12:08:45;;;;;;;14.40;4.20;;;;;;;13.82;100.00;101506.78;5047950;28;20075;-78
2023/10/17 12:11:11;;;;;;;6.65;3.67;;;;;;;13.62;100.00;101502.91;5044377;28;20120;-78
2023/10/17 12:13:37;;;;;;;5.50;3.40;;;;;;;13.66;98.14;101507.16;5012939;28;20116;-78
2023/10/17 12:16:08;;;;;;;6.80;3.47;;;;;;;13.68;98.97;101510.69;5042726;28;20033;-78
2023/10/17 12:18:35;;;;;;;14.98;3.90;;;;;;;13.70;100.00;101497.66;5047204;28;20082;-80
2023/10/17 12:21:01;;;;;;;11.00;3.30;;;;;;;13.71;100.00;101515.94;5048875;28;20033;-79
2023/10/17 12:23:30;;;;;;;7.22;3.40;;;;;;;13.52;99.43;101513.78;5052299;28;20105;-79
2023/10/17 12:26:01;;;;;;;7.38;3.30;;;;;;;13.76;100.00;101506.28;5041453;28;20403;-78
2023/10/17 12:28:27;;;;;;;7.07;3.08;;;;;;;13.53;96.90;101512.81;5052528;28;20064;-78
2023/10/17 12:30:54;;;;;;;7.82;3.60;;;;;;;13.67;97.64;101503.41;5046449;28;20542;-78
2023/10/17 12:33:23;;;;;;;5.60;3.00;;;;;;;13.49;100.00;101497.53;5052223;28;20452;-79
2023/10/17 12:35:50;;;;;;;8.25;2.95;;;;;;;13.56;96.79;101496.03;5047051;28;20036;-79
2023/10/17 12:38:24;;;;;;;7.90;3.75;;;;;;;13.54;97.28;101496.16;5052290;28;20064;-79
2023/10/17 12:40:51;;;;;;;8.90;2.80;;;;;;;13.71;98.37;101482.91;5051704;28;20442;-80
2023/10/17 12:43:16;;;;;;;5.18;3.03;;;;;;;13.65;97.70;101481.53;5036201;28;20112;-78
2023/10/17 12:45:42;;;;;;;6.10;3.15;;;;;;;13.74;99.85;101474.38;5052840;28;20112;-78
2023/10/17 12:48:10;;;;;;;6.90;3.20;;;;;;;13.79;100.00;101469.38;5049573;28;20040;-79
2023/10/17 12:50:40;;;;;;;9.02;3.40;;;;;;;13.70;100.00;101473.75;5052154;28;20475;-78
2023/10/17 12:53:06;;;;;;;8.02;3.45;;;;;;;13.84;100.00;101460.72;5049146;28;20116;-77
2023/10/17 12:55:35;;;;;;;6.05;3.47;;;;;;;13.73;100.00;101453.38;5053058;28;20454;-78
2023/10/17 12:58:01;;;;;;;5.63;3.28;;;;;;;13.79;100.00;101434.47;5050159;28;20111;-79
2023/10/17 13:00:27;;;;;;;6.70;3.60;;;;;;;13.81;100.00;101447.22;5051908;28;20033;-77
2023/10/17 13:02:54;;;;;;;8.93;3.20;;;;;;;13.66;100.00;101433.75;5051638;28;20028;-77
2023/10/17 13:05:22;;;;;;;12.23;3.40;;;;;;;13.73;100.00;101425.84;5050696;28;20387;-77
2023/10/17 13:07:47;;;;;;;9.05;3.55;;;;;;;13.68;100.00;101433.63;5034741;28;20422;-77
2023/10/17 13:10:13;;;;;;;10.82;3.58;;;;;;;13.66;100.00;101421.84;5018373;28;20495;-78
2023/10/17 13:12:39;;;;;;;9.10;3.28;;;;;;;13.61;99.02;101425.00;5034409;28;20140;-77
2023/10/17 13:15:08;;;;;;;7.57;3.67;;;;;;;13.60;100.00;101412.25;5026579;28;20502;-77
2023/10/17 13:17:33;;;;;;;6.28;3.22;;;;;;;13.66;99.84;101417.22;5033948;28;20054;-77
2023/10/17 13:20:06;;;;;;;3.13;2.80;;;;;;;13.32;96.98;101400.75;5045357;28;20040;-78
2023/10/17 13:22:36;;;;;;;;;;;;;;;13.46;100.00;101412.50;5042754;28;20048;-78
2023/10/17 13:25:02;;;;;;;5.30;3.03;;;;;;;13.40;100.00;101409.25;5030180;28;19928;-78
2023/10/17 13:27:28;;;;;;;5.25;2.83;;;;;;;13.31;98.08;101420.09;5041594;28;20140;-78
2023/10/17 13:29:54;;;;;;;8.85;3.45;;;;;;;13.24;99.39;101414.22;5030108;28;20091;-79
2023/10/17 13:32:19;;;;;;;5.03;3.05;;;;;;;13.28;100.00;101415.75;5029259;28;20025;-79
2023/10/17 13:34:46;;;;;;;8.95;3.08;;;;;;;13.26;99.67;101416.84;5034483;28;20116;-80
2023/10/17 13:37:12;;;;;;;6.32;3.35;;;;;;;13.29;99.90;101417.47;5048557;28;20075;-78
2023/10/17 13:39:38;;;;;;;4.88;3.33;;;;;;;13.24;100.00;101386.72;5042971;28;20061;-78